Nucla, Colorado
Current Conditions -  °F | °C
As of 9:55 PM on Sunday 21 Dec 2014 (Local Time) from KAIB Reporting Station
Scattered Clouds Scattered Clouds  
Wind Chill: -3°   Ceiling: Unl
Heat Index:   Visibility: 10mi
Dew Point: -1°   Wind: 6mph
Humidity: 93%   Direction: 100°E
Pressure: 29.97"   Gusts: NA
Location:  38.27°N, 108.55°W
Report Text: KAIB 220455Z AUTO 10005KT 10SM SCT049 00/M01 A2997 RMK AO2
Loading
Personal Weather Stations






























Interactive Weather Map New forecast layout! Learn more

10-Day Weather Forecast

Advertisements
Track Severe Weather on mobile